Time;durP1;ratioP1;P1;durP2;ratioP2;P2;SDS_P1;SDS_P2;PMS_P1;PMS_P2;Temp;Humidity;BMP_temperature;BMP_pressure;BME280_temperature;BME280_humidity;BME280_pressure;Samples;Min_cycle;Max_cycle;Signal;HPM_P1;HPM_P2
2021/07/24 00:01:53;;;;;;;25.67;11.75;;;;;;;16.11;72.62;101613.44;5055859;28;20033;-88
2021/07/24 00:04:18;;;;;;;39.72;12.85;;;;;;;16.04;72.92;101612.88;5063938;28;20382;-88
2021/07/24 00:06:45;;;;;;;22.85;11.55;;;;;;;15.98;73.09;101617.44;5051611;28;20020;-88
2021/07/24 00:09:11;;;;;;;18.17;11.57;;;;;;;15.95;73.17;101615.25;5064036;28;20059;-88
2021/07/24 00:11:37;;;;;;;18.75;11.88;;;;;;;15.94;73.37;101605.50;5046266;28;20036;-90
2021/07/24 00:14:03;;;;;;;15.40;10.85;;;;;;;15.92;73.41;101610.38;5050892;28;20450;-88
2021/07/24 00:16:29;;;;;;;17.48;12.18;;;;;;;15.81;74.04;101598.72;5054193;28;20032;-88
2021/07/24 00:18:55;;;;;;;17.73;12.45;;;;;;;15.81;73.98;101611.41;5052370;28;20032;-87
2021/07/24 00:21:20;;;;;;;17.52;11.85;;;;;;;15.81;73.81;101601.41;5045621;28;20503;-88
2021/07/24 00:23:46;;;;;;;17.92;10.90;;;;;;;15.80;73.67;101602.50;5051881;28;20027;-88
2021/07/24 00:26:12;;;;;;;18.55;11.60;;;;;;;15.75;73.51;101597.03;5071226;28;20025;-88
2021/07/24 00:28:39;;;;;;;22.15;11.85;;;;;;;15.71;73.43;101601.34;5056398;28;20367;-88
2021/07/24 00:31:04;;;;;;;18.55;12.18;;;;;;;15.66;73.57;101601.31;5053003;28;20021;-87
2021/07/24 00:33:30;;;;;;;17.67;11.55;;;;;;;15.59;73.73;101604.22;5048355;28;20021;-88
2021/07/24 00:35:56;;;;;;;16.55;10.23;;;;;;;15.55;73.95;101603.09;5051451;28;20029;-88
2021/07/24 00:38:22;;;;;;;19.52;11.23;;;;;;;15.49;74.26;101598.75;5060255;28;20031;-88
2021/07/24 00:40:56;;;;;;;16.77;11.93;;;;;;;15.45;74.39;101600.34;5053084;28;20020;-87
2021/07/24 00:43:29;;;;;;;16.80;11.70;;;;;;;15.39;74.55;101601.38;5052264;28;20385;-88
2021/07/24 00:45:56;;;;;;;19.42;12.60;;;;;;;15.38;74.88;101600.56;5071105;28;20117;-88
2021/07/24 00:48:22;;;;;;;22.23;11.98;;;;;;;15.33;75.19;101595.13;5071024;28;20482;-88
2021/07/24 00:50:50;;;;;;;43.05;13.77;;;;;;;15.29;75.10;101596.72;5046178;28;20017;-87
2021/07/24 00:53:33;;;;;;;41.75;14.73;;;;;;;15.26;75.57;101594.53;5065626;28;20024;-88
2021/07/24 00:56:00;;;;;;;23.45;13.20;;;;;;;15.19;75.82;101591.22;5056051;28;20032;-87
2021/07/24 00:58:30;;;;;;;30.92;13.13;;;;;;;15.12;75.87;101590.66;5064048;28;20024;-88
2021/07/24 01:00:56;;;;;;;17.88;12.75;;;;;;;15.09;75.99;101591.16;5069638;28;20032;-88
2021/07/24 01:03:22;;;;;;;28.88;13.32;;;;;;;15.08;75.94;101594.91;5052222;28;20044;-88
2021/07/24 01:05:53;;;;;;;19.45;12.98;;;;;;;15.04;76.08;101593.81;5052641;28;20272;-88
2021/07/24 01:08:19;;;;;;;16.35;12.15;;;;;;;14.98;76.28;101590.25;5057667;28;20055;-87
2021/07/24 01:10:46;;;;;;;16.88;11.57;;;;;;;14.96;76.24;101588.88;5073428;28;20025;-89
2021/07/24 01:13:16;;;;;;;17.35;12.13;;;;;;;14.96;76.54;101591.59;5053959;28;20037;-88
2021/07/24 01:15:46;;;;;;;16.88;11.82;;;;;;;14.91;76.78;101588.84;5055797;28;20032;-88
2021/07/24 01:18:12;;;;;;;22.00;11.50;;;;;;;14.86;76.99;101591.47;5061324;28;20029;-87
2021/07/24 01:20:39;;;;;;;18.15;11.25;;;;;;;14.84;77.19;101583.66;5074108;28;20032;-87
2021/07/24 01:23:05;;;;;;;16.38;11.35;;;;;;;14.82;77.29;101581.19;5059786;28;20024;-88
2021/07/24 01:25:30;;;;;;;17.10;12.20;;;;;;;14.79;77.40;101589.81;5055782;28;20386;-88
2021/07/24 01:27:55;;;;;;;16.00;11.00;;;;;;;14.75;77.49;101586.00;5054171;28;20027;-89
2021/07/24 01:30:21;;;;;;;15.65;11.32;;;;;;;14.70;77.72;101588.63;5052194;28;20398;-87
2021/07/24 01:32:47;;;;;;;18.13;11.70;;;;;;;14.66;77.76;101587.53;5059331;28;20115;-88
2021/07/24 01:35:14;;;;;;;23.75;12.73;;;;;;;14.64;78.04;101589.66;5057876;28;20020;-88
2021/07/24 01:37:40;;;;;;;20.55;12.70;;;;;;;14.63;77.87;101582.63;5067587;28;20025;-89
2021/07/24 01:40:06;;;;;;;16.00;11.93;;;;;;;14.65;78.08;101580.50;5053434;28;20594;-87
2021/07/24 01:42:32;;;;;;;15.20;11.80;;;;;;;14.65;77.89;101588.59;5056305;28;20048;-88
2021/07/24 01:44:57;;;;;;;18.52;10.93;;;;;;;14.60;77.81;101585.84;5063748;28;20023;-88
2021/07/24 01:47:22;;;;;;;19.77;12.60;;;;;;;14.56;78.09;101576.66;5055717;28;20028;-87
2021/07/24 01:52:48;;;;;;;28.90;12.45;;;;;;;14.45;78.39;101583.00;5066142;28;20040;-90
2021/07/24 01:55:23;;;;;;;21.95;10.63;;;;;;;14.43;78.23;101583.25;5054721;28;20120;-87
2021/07/24 01:57:51;;;;;;;14.60;11.02;;;;;;;14.44;78.35;101584.06;5055315;28;20051;-87
2021/07/24 02:00:17;;;;;;;16.50;12.40;;;;;;;14.41;78.56;101592.63;5068102;28;20029;-87
2021/07/24 02:02:46;;;;;;;16.02;11.43;;;;;;;14.36;78.81;101588.00;5055420;28;20024;-87
2021/07/24 02:05:42;;;;;;;20.83;12.55;;;;;;;14.25;80.11;101580.03;5049905;28;20056;-88
2021/07/24 02:08:08;;;;;;;;;;;;;;;14.17;79.53;101586.66;5049847;28;20036;-88
2021/07/24 02:10:34;;;;;;;16.90;11.23;;;;;;;14.27;78.81;101586.00;5065061;28;19920;-87
2021/07/24 02:13:00;;;;;;;17.45;11.43;;;;;;;14.27;78.69;101586.00;5073029;28;20029;-88
2021/07/24 02:15:26;;;;;;;18.02;11.65;;;;;;;14.24;79.12;101583.81;5050790;28;20032;-88
2021/07/24 02:17:51;;;;;;;18.55;11.73;;;;;;;14.19;79.11;101577.28;5053285;28;20056;-88
2021/07/24 02:20:19;;;;;;;17.35;12.60;;;;;;;14.14;79.14;101574.50;5053291;28;20032;-88
2021/07/24 02:22:45;;;;;;;17.73;12.05;;;;;;;14.15;79.42;101570.75;5051872;28;20021;-88
2021/07/24 02:25:10;;;;;;;17.90;11.65;;;;;;;14.16;79.38;101575.06;5062325;28;20099;-88
2021/07/24 02:27:38;;;;;;;21.48;12.38;;;;;;;14.16;79.47;101572.38;5056439;28;20032;-88
2021/07/24 02:30:05;;;;;;;17.33;11.88;;;;;;;14.17;79.38;101578.59;5053419;28;20115;-88
2021/07/24 02:32:31;;;;;;;20.77;11.30;;;;;;;14.11;79.47;101575.03;5062654;28;20028;-88
2021/07/24 02:34:56;;;;;;;18.83;11.00;;;;;;;14.09;79.33;101573.66;5062075;28;20073;-88
2021/07/24 02:37:22;;;;;;;16.55;10.48;;;;;;;13.99;79.24;101582.41;5072429;28;20036;-88
2021/07/24 02:39:47;;;;;;;16.15;11.80;;;;;;;13.93;79.11;101567.25;5072348;28;20020;-87
2021/07/24 02:42:14;;;;;;;14.23;10.65;;;;;;;13.91;79.46;101572.91;5065897;28;20020;-88
2021/07/24 02:44:39;;;;;;;21.95;11.68;;;;;;;13.89;79.46;101574.22;5053153;28;20025;-88
2021/07/24 02:47:05;;;;;;;21.08;12.60;;;;;;;13.87;79.75;101565.56;5053874;28;20031;-88
2021/07/24 02:49:30;;;;;;;21.45;12.50;;;;;;;13.83;79.82;101569.84;5072545;28;20073;-88
2021/07/24 02:51:56;;;;;;;20.73;12.45;;;;;;;13.81;79.75;101569.25;5047703;28;20052;-88
2021/07/24 02:54:21;;;;;;;18.52;13.60;;;;;;;13.78;80.02;101569.75;5048397;28;20158;-88
2021/07/24 02:56:47;;;;;;;22.63;13.05;;;;;;;13.74;80.33;101576.69;5053695;28;20213;-87
2021/07/24 02:59:12;;;;;;;19.45;13.30;;;;;;;13.71;80.18;101574.50;5046775;28;20384;-88
2021/07/24 03:01:40;;;;;;;23.55;13.07;;;;;;;13.68;81.16;101577.72;5061071;28;20028;-88
2021/07/24 03:04:05;;;;;;;22.38;12.55;;;;;;;13.72;81.05;101574.25;5056126;28;20048;-88
2021/07/24 03:06:31;;;;;;;18.63;11.55;;;;;;;13.73;80.53;101575.88;5049800;28;20438;-88
2021/07/24 03:08:56;;;;;;;22.13;11.95;;;;;;;13.73;80.71;101567.00;5056819;28;20092;-88
2021/07/24 03:11:22;;;;;;;16.23;10.70;;;;;;;13.73;80.66;101565.13;5053154;28;20390;-88
2021/07/24 03:13:48;;;;;;;15.00;11.70;;;;;;;13.73;80.72;101575.88;5054006;28;20035;-88
2021/07/24 03:16:13;;;;;;;16.15;11.05;;;;;;;13.72;80.10;101574.25;5054833;28;20478;-88
2021/07/24 03:18:39;;;;;;;19.42;13.13;;;;;;;13.67;80.01;101573.38;5054077;28;20024;-88
2021/07/24 03:21:04;;;;;;;19.73;12.68;;;;;;;13.65;79.89;101570.13;5052717;28;20508;-88
2021/07/24 03:23:30;;;;;;;18.38;12.32;;;;;;;13.56;80.27;101567.84;5048262;28;20020;-89
2021/07/24 03:25:55;;;;;;;19.60;12.90;;;;;;;13.57;80.49;101566.78;5061757;28;20044;-87
2021/07/24 03:28:21;;;;;;;15.77;11.38;;;;;;;13.57;80.73;101569.47;5063188;28;20029;-87
2021/07/24 03:30:46;;;;;;;20.17;12.18;;;;;;;13.59;80.47;101569.22;5053049;28;20035;-87
2021/07/24 03:33:12;;;;;;;19.90;12.60;;;;;;;13.64;80.42;101563.91;5051088;28;20040;-87
2021/07/24 03:35:37;;;;;;;19.30;12.05;;;;;;;13.65;80.35;101565.56;5047409;28;20556;-87
2021/07/24 03:38:04;;;;;;;17.35;12.63;;;;;;;13.62;79.93;101568.72;5060609;28;20066;-87
2021/07/24 03:40:30;;;;;;;20.33;12.90;;;;;;;13.64;80.28;101571.16;5052395;28;20073;-87
2021/07/24 03:42:56;;;;;;;21.25;12.18;;;;;;;13.67;80.09;101568.00;5063835;28;20474;-87
2021/07/24 03:45:22;;;;;;;17.55;11.82;;;;;;;13.68;80.15;101566.94;5053829;28;20115;-88
2021/07/24 03:47:47;;;;;;;19.35;12.95;;;;;;;13.70;80.14;101573.69;5050635;28;20054;-87
2021/07/24 03:50:13;;;;;;;15.98;11.65;;;;;;;13.75;79.84;101565.69;5071181;28;20379;-87
2021/07/24 03:52:40;;;;;;;17.17;12.48;;;;;;;13.78;79.86;101561.66;5054465;28;20016;-88
2021/07/24 03:55:06;;;;;;;17.88;12.52;;;;;;;13.78;79.94;101564.38;5051964;28;20024;-88
2021/07/24 03:57:32;;;;;;;21.50;13.18;;;;;;;13.82;79.97;101560.09;5070414;28;20029;-87
2021/07/24 04:00:00;;;;;;;18.90;12.25;;;;;;;13.85;80.03;101563.13;5053722;28;20078;-87
2021/07/24 04:02:27;;;;;;;20.77;13.00;;;;;;;13.91;79.90;101564.81;5071453;28;20032;-87
2021/07/24 04:04:52;;;;;;;19.60;13.30;;;;;;;13.96;79.99;101561.38;5053372;28;20446;-87
2021/07/24 04:07:21;;;;;;;23.55;14.35;;;;;;;14.01;80.01;101564.16;5054308;28;20119;-87
2021/07/24 04:09:47;;;;;;;20.65;13.45;;;;;;;14.08;80.06;101553.97;5053731;28;20389;-87
2021/07/24 04:12:13;;;;;;;17.27;12.90;;;;;;;14.16;80.07;101550.81;5071583;28;20103;-86
2021/07/24 04:14:38;;;;;;;20.48;13.70;;;;;;;14.26;79.84;101541.25;5050274;28;20486;-87
2021/07/24 04:17:04;;;;;;;19.05;13.07;;;;;;;14.35;79.71;101543.22;5059372;28;20029;-87
2021/07/24 04:19:31;;;;;;;18.40;13.85;;;;;;;14.43;79.65;101544.66;5053418;28;20027;-88
2021/07/24 04:21:56;;;;;;;22.48;13.43;;;;;;;14.52;79.51;101543.97;5056092;28;20040;-87
2021/07/24 04:24:22;;;;;;;23.95;14.68;;;;;;;14.60;79.76;101540.00;5070491;28;20372;-87
2021/07/24 04:26:49;;;;;;;26.65;15.70;;;;;;;14.70;79.99;101539.28;5045159;28;20027;-87
2021/07/24 04:29:15;;;;;;;19.20;14.70;;;;;;;14.79;79.86;101529.66;5053773;28;20067;-87
2021/07/24 04:31:40;;;;;;;21.45;14.82;;;;;;;14.93;80.01;101533.56;5052355;28;20020;-87
2021/07/24 04:34:06;;;;;;;22.08;15.35;;;;;;;15.03;80.08;101533.63;5046578;28;20051;-88
2021/07/24 04:36:32;;;;;;;22.17;13.50;;;;;;;15.16;80.04;101534.25;5053527;28;20605;-88
2021/07/24 04:38:57;;;;;;;19.30;13.90;;;;;;;15.28;79.63;101535.69;5071319;28;20028;-88
2021/07/24 04:41:23;;;;;;;19.13;14.85;;;;;;;15.40;79.13;101528.19;5059921;28;20035;-87
2021/07/24 04:43:48;;;;;;;20.70;13.82;;;;;;;15.50;79.08;101535.56;5071409;28;20025;-87
2021/07/24 04:46:14;;;;;;;21.65;14.70;;;;;;;15.52;79.63;101536.09;5054674;28;20025;-88
2021/07/24 04:48:39;;;;;;;19.80;14.00;;;;;;;15.63;78.93;101540.53;5057437;28;20020;-87
2021/07/24 04:51:05;;;;;;;22.08;15.25;;;;;;;15.62;79.28;101543.50;5059524;28;20401;-88
2021/07/24 04:53:32;;;;;;;26.42;15.40;;;;;;;15.82;78.37;101542.78;5056981;28;20020;-89
2021/07/24 04:56:00;;;;;;;21.70;14.55;;;;;;;16.05;77.72;101546.91;5057295;28;20025;-88
2021/07/24 04:58:26;;;;;;;23.27;14.63;;;;;;;16.25;77.12;101547.78;5057301;28;20035;-87
2021/07/24 05:00:54;;;;;;;22.52;15.35;;;;;;;16.34;76.88;101548.09;5074850;28;20028;-88
2021/07/24 05:03:20;;;;;;;23.58;15.32;;;;;;;16.36;76.58;101542.41;5057256;28;20035;-88
2021/07/24 05:05:45;;;;;;;21.35;14.68;;;;;;;16.59;75.73;101556.25;5074903;28;20099;-88
2021/07/24 05:08:13;;;;;;;20.65;14.45;;;;;;;16.79;75.25;101549.25;5057007;28;20025;-89
2021/07/24 05:10:39;;;;;;;20.35;13.73;;;;;;;16.84;74.69;101555.47;5065888;28;20558;-88
2021/07/24 05:13:05;;;;;;;21.05;15.30;;;;;;;17.01;74.32;101562.53;5071316;28;20199;-88
2021/07/24 05:15:30;;;;;;;22.88;15.25;;;;;;;16.80;75.17;101557.09;5064229;28;20025;-89
2021/07/24 05:17:56;;;;;;;17.08;13.27;;;;;;;16.89;75.27;101554.69;5064694;28;20631;-88
2021/07/24 05:20:25;;;;;;;18.55;13.07;;;;;;;17.21;74.19;101555.19;5056595;28;20025;-88
2021/07/24 05:22:52;;;;;;;17.45;11.95;;;;;;;17.45;71.19;101555.44;5046208;28;20467;-87
2021/07/24 05:25:18;;;;;;;16.77;12.63;;;;;;;17.63;70.91;101564.06;5053038;28;20024;-88
2021/07/24 05:27:43;;;;;;;17.00;11.50;;;;;;;17.76;70.25;101567.03;5054747;28;20029;-87
2021/07/24 05:30:09;;;;;;;14.35;11.15;;;;;;;17.93;69.75;101568.59;5056626;28;20020;-89
2021/07/24 05:32:35;;;;;;;14.90;11.07;;;;;;;18.03;69.61;101560.44;5064462;28;20028;-87
2021/07/24 05:35:01;;;;;;;24.33;11.82;;;;;;;18.24;69.88;101558.44;5070221;28;20483;-88
2021/07/24 05:37:27;;;;;;;17.85;11.20;;;;;;;18.45;69.31;101559.13;5056495;28;20119;-87
2021/07/24 05:39:52;;;;;;;18.58;11.75;;;;;;;18.60;69.26;101561.72;5055988;28;20027;-88
2021/07/24 05:42:18;;;;;;;15.20;10.95;;;;;;;18.82;69.18;101564.84;5070082;28;20020;-87
2021/07/24 05:44:43;;;;;;;16.70;11.30;;;;;;;19.04;68.31;101560.91;5074235;28;20021;-87
2021/07/24 05:47:09;;;;;;;15.60;10.70;;;;;;;19.18;67.57;101565.38;5074512;28;20035;-89
2021/07/24 05:49:37;;;;;;;13.35;10.07;;;;;;;19.32;66.68;101558.16;5056413;28;20027;-88
2021/07/24 05:52:08;;;;;;;15.82;10.18;;;;;;;19.50;66.34;101553.91;5055906;28;20052;-88
2021/07/24 05:54:43;;;;;;;18.85;11.38;;;;;;;19.70;66.05;101552.09;5072758;28;20059;-88
2021/07/24 05:57:08;;;;;;;15.90;10.63;;;;;;;19.87;65.44;101560.59;5055678;28;20032;-88
2021/07/24 05:59:34;;;;;;;16.98;10.70;;;;;;;20.03;64.79;101561.22;5073678;28;20017;-88
2021/07/24 06:02:01;;;;;;;14.20;10.10;;;;;;;20.19;63.83;101560.72;5056266;28;20047;-88
2021/07/24 06:04:27;;;;;;;15.55;9.95;;;;;;;20.31;62.67;101552.13;5056207;28;20023;-88
2021/07/24 06:06:53;;;;;;;12.95;9.75;;;;;;;20.46;62.78;101551.13;5055240;28;20025;-88
2021/07/24 06:09:18;;;;;;;16.85;10.00;;;;;;;20.61;62.09;101561.78;5068079;28;20055;-88
2021/07/24 06:11:44;;;;;;;15.98;10.32;;;;;;;20.70;62.21;101556.50;5072607;28;20101;-88
2021/07/24 06:14:09;;;;;;;17.77;9.93;;;;;;;20.88;61.41;101552.13;5055570;28;20024;-87
2021/07/24 06:16:38;;;;;;;15.00;10.27;;;;;;;21.04;60.98;101546.13;5071617;28;20043;-89
2021/07/24 06:19:04;;;;;;;17.52;9.73;;;;;;;21.18;60.39;101546.13;5063440;28;20662;-88
2021/07/24 06:21:29;;;;;;;13.57;10.38;;;;;;;21.30;59.95;101543.75;5055509;28;20029;-88
2021/07/24 06:23:55;;;;;;;15.07;9.25;;;;;;;21.39;59.99;101544.69;5044472;28;20086;-88
2021/07/24 06:26:20;;;;;;;13.55;9.95;;;;;;;21.60;59.57;101563.41;5052298;28;20064;-88
2021/07/24 06:28:46;;;;;;;15.48;9.90;;;;;;;21.75;59.63;101557.66;5059904;28;20027;-88
2021/07/24 06:31:12;;;;;;;13.48;9.70;;;;;;;21.86;58.87;101559.03;5055481;28;20032;-88
2021/07/24 06:33:37;;;;;;;12.95;9.02;;;;;;;21.98;58.55;101555.81;5073558;28;20024;-88
2021/07/24 06:36:03;;;;;;;13.63;9.70;;;;;;;22.11;57.95;101554.22;5055332;28;20028;-88
2021/07/24 06:38:29;;;;;;;14.70;9.90;;;;;;;22.21;58.52;101548.50;5055490;28;20077;-88
2021/07/24 06:40:55;;;;;;;12.80;9.43;;;;;;;;;;5056196;28;20024;-88
2021/07/24 06:43:21;;;;;;;10.77;9.02;;;;;;;22.34;56.91;101539.47;5075184;28;20032;-91
2021/07/24 06:45:47;;;;;;;10.45;8.45;;;;;;;22.54;56.23;101544.47;5074923;28;20618;-88
2021/07/24 06:48:13;;;;;;;14.27;9.85;;;;;;;22.68;55.45;101547.16;5065082;28;20020;-88
2021/07/24 06:50:38;;;;;;;11.98;8.82;;;;;;;22.82;55.45;101552.59;5072804;28;20028;-88
2021/07/24 06:53:04;;;;;;;15.00;9.32;;;;;;;22.93;54.35;101548.47;5055111;28;20016;-88
2021/07/24 06:55:29;;;;;;;11.90;9.05;;;;;;;23.06;54.31;101544.06;5055490;28;20546;-88
2021/07/24 06:58:01;;;;;;;17.95;9.38;;;;;;;23.27;53.97;101542.41;5060948;28;20550;-88
2021/07/24 07:00:27;;;;;;;12.00;8.68;;;;;;;23.31;53.54;101537.09;5064403;28;20060;-89
2021/07/24 07:02:56;;;;;;;13.55;8.50;;;;;;;23.42;52.70;101549.38;5059118;28;20031;-88
2021/07/24 07:05:22;;;;;;;16.20;9.55;;;;;;;23.58;52.69;101550.59;5073702;28;20024;-89
2021/07/24 07:07:47;;;;;;;12.95;9.07;;;;;;;23.75;52.56;101547.13;5064208;28;20531;-89
2021/07/24 07:10:13;;;;;;;11.55;9.35;;;;;;;23.85;52.61;101546.81;5045754;28;20054;-88
2021/07/24 07:12:38;;;;;;;13.60;9.20;;;;;;;24.00;51.51;101548.31;5049697;28;20017;-87
2021/07/24 07:15:08;;;;;;;14.60;9.77;;;;;;;24.10;50.57;101548.00;5054588;28;20107;-88
2021/07/24 07:17:35;;;;;;;15.30;9.32;;;;;;;24.26;50.76;101542.88;5072271;28;20162;-87
2021/07/24 07:20:02;;;;;;;13.65;9.00;;;;;;;24.41;50.41;101540.47;5059993;28;20055;-88
2021/07/24 07:22:28;;;;;;;15.45;9.60;;;;;;;24.58;50.94;101536.13;5054278;28;20024;-89
2021/07/24 07:24:54;;;;;;;13.93;8.85;;;;;;;24.79;50.86;101537.09;5054381;28;20020;-89
2021/07/24 07:27:19;;;;;;;11.10;8.50;;;;;;;24.91;50.25;101531.72;5072007;28;20021;-88
2021/07/24 07:29:45;;;;;;;13.25;9.00;;;;;;;25.14;50.03;101526.88;5072160;28;20039;-88
2021/07/24 07:32:10;;;;;;;13.43;8.25;;;;;;;25.29;48.83;101531.81;5054436;28;20528;-88
2021/07/24 07:34:36;;;;;;;12.07;8.02;;;;;;;25.35;48.77;101529.69;5054266;28;20026;-88
2021/07/24 07:37:02;;;;;;;10.82;8.45;;;;;;;25.45;48.93;101529.31;5067981;28;20107;-88
2021/07/24 07:39:27;;;;;;;14.25;8.73;;;;;;;25.46;48.37;101521.88;5052841;28;20066;-88
2021/07/24 07:41:53;;;;;;;12.00;8.68;;;;;;;25.61;48.06;101524.09;5047406;28;20644;-88
2021/07/24 07:44:24;;;;;;;10.55;7.95;;;;;;;25.58;47.67;101514.56;5053850;28;20035;-89
2021/07/24 07:46:51;;;;;;;13.75;8.85;;;;;;;25.84;48.49;101508.94;5053314;28;20375;-89
2021/07/24 07:49:19;;;;;;;11.82;8.18;;;;;;;26.07;47.70;101512.22;5053591;28;20024;-88
2021/07/24 07:51:45;;;;;;;11.43;8.15;;;;;;;26.16;48.53;101503.88;5053778;28;20024;-89
2021/07/24 07:54:11;;;;;;;10.57;8.13;;;;;;;26.30;47.81;101503.63;5053768;28;20036;-88
2021/07/24 07:56:37;;;;;;;12.25;8.40;;;;;;;26.44;48.17;101501.44;5058893;28;20397;-90
2021/07/24 07:59:03;;;;;;;11.05;8.10;;;;;;;26.65;46.95;101502.19;5066208;28;20027;-88
2021/07/24 08:01:29;;;;;;;13.52;8.40;;;;;;;26.76;46.35;101497.09;5054031;28;20024;-89
2021/07/24 08:03:57;;;;;;;11.27;8.30;;;;;;;26.79;46.01;101496.41;5050134;28;20682;-89
2021/07/24 08:06:23;;;;;;;11.57;8.15;;;;;;;26.96;45.83;101495.41;5070590;28;20598;-88
2021/07/24 08:08:56;;;;;;;11.77;7.95;;;;;;;27.04;45.35;101491.78;5046128;28;20115;-88
2021/07/24 08:11:21;;;;;;;10.75;8.18;;;;;;;27.15;45.14;101486.63;5053386;28;20024;-89
2021/07/24 08:13:47;;;;;;;10.32;7.72;;;;;;;27.25;45.41;101486.19;5053064;28;20032;-89
2021/07/24 08:16:16;;;;;;;10.13;8.00;;;;;;;27.46;44.57;101488.81;5071572;28;20111;-88
2021/07/24 08:18:44;;;;;;;10.95;7.88;;;;;;;27.45;44.72;101478.94;5058471;28;20378;-88
2021/07/24 08:21:10;;;;;;;8.95;8.05;;;;;;;27.55;44.53;101479.28;5070789;28;20032;-89
2021/07/24 08:23:36;;;;;;;11.70;8.52;;;;;;;27.55;44.01;101475.75;5065878;28;20031;-88
2021/07/24 08:26:02;;;;;;;9.70;8.00;;;;;;;27.54;43.66;101468.63;5057019;28;20123;-88
2021/07/24 08:28:28;;;;;;;10.57;7.65;;;;;;;27.86;43.87;101462.19;5057257;28;20107;-90
2021/07/24 08:30:55;;;;;;;13.25;8.38;;;;;;;27.98;43.68;101464.09;5063113;28;20129;-89
2021/07/24 08:33:20;;;;;;;10.60;7.95;;;;;;;28.19;42.96;101458.44;5057428;28;20482;-88
2021/07/24 08:35:46;;;;;;;10.80;8.10;;;;;;;28.35;41.45;101450.22;5062789;28;20040;-89
2021/07/24 08:38:13;;;;;;;10.68;8.50;;;;;;;28.26;41.40;101458.66;5057591;28;20029;-88
2021/07/24 08:40:39;;;;;;;12.73;8.30;;;;;;;28.26;39.87;101458.66;5054332;28;20028;-88
2021/07/24 08:43:09;;;;;;;15.25;8.73;;;;;;;28.32;39.07;101443.44;5050099;28;20023;-88
2021/07/24 08:45:34;;;;;;;10.63;8.23;;;;;;;28.43;38.37;101447.31;5052497;28;20021;-88
2021/07/24 08:48:02;;;;;;;12.18;8.15;;;;;;;28.31;39.24;101439.09;5060924;28;20098;-88
2021/07/24 08:50:29;;;;;;;10.77;8.68;;;;;;;28.36;38.84;101438.03;5068711;28;20103;-88
2021/07/24 08:52:57;;;;;;;14.85;8.25;;;;;;;28.63;38.04;101439.16;5056538;28;20028;-88
2021/07/24 08:55:23;;;;;;;11.00;8.10;;;;;;;28.66;37.43;101438.44;5074656;28;20370;-89
2021/07/24 08:57:51;;;;;;;14.85;8.40;;;;;;;28.55;37.29;101436.22;5059064;28;20031;-91
2021/07/24 09:00:18;;;;;;;10.18;8.43;;;;;;;28.68;37.43;101436.13;5057446;28;20086;-89
2021/07/24 09:02:48;;;;;;;11.02;8.73;;;;;;;28.87;36.65;101428.78;5049355;28;20502;-91
2021/07/24 09:05:15;;;;;;;11.80;9.07;;;;;;;28.97;35.67;101433.00;5056898;28;20035;-89
2021/07/24 09:07:47;;;;;;;10.73;8.20;;;;;;;29.08;35.49;101436.78;5058205;28;20024;-89
2021/07/24 09:10:13;;;;;;;12.35;8.95;;;;;;;29.18;34.45;101433.50;5058015;28;20406;-90
2021/07/24 09:12:41;;;;;;;18.77;8.43;;;;;;;29.08;35.62;101439.53;5057615;28;20528;-89
2021/07/24 09:15:08;;;;;;;11.93;8.05;;;;;;;29.09;34.40;101434.84;5068359;22;20277;-57
2021/07/24 09:17:34;;;;;;;9.32;8.10;;;;;;;28.88;35.07;101437.88;5059852;28;20053;-55
2021/07/24 09:20:00;;;;;;;10.13;8.05;;;;;;;29.08;35.51;101431.28;5048545;28;20416;-57
2021/07/24 09:22:26;;;;;;;12.25;8.68;;;;;;;29.40;34.23;101434.00;5050721;28;20025;-57
2021/07/24 09:25:16;;;;;;;11.98;8.27;;;;;;;29.40;34.12;101434.78;5051570;28;20382;-57
2021/07/24 09:27:43;;;;;;;12.90;8.65;;;;;;;29.53;33.91;101432.75;5051131;28;20063;-58
2021/07/24 09:30:28;;;;;;;12.88;8.18;;;;;;;29.53;33.78;101424.47;5057715;22;21028;-72
2021/07/24 09:33:02;;;;;;;;;;;;;;;29.64;34.70;101425.50;5049308;28;20402;-72
2021/07/24 09:35:42;;;;;;;15.02;8.20;;;;;;;29.70;34.66;101415.78;5049185;28;19971;-72
2021/07/24 09:38:37;;;;;;;16.58;8.40;;;;;;;29.82;33.49;101427.84;5021934;28;20057;-72
2021/07/24 09:41:05;;;;;;;13.93;8.32;;;;;;;29.41;34.00;101413.50;5039739;28;20033;-72
2021/07/24 09:43:39;;;;;;;13.38;8.30;;;;;;;29.14;34.57;101424.34;5037738;28;20108;-72
2021/07/24 09:46:21;;;;;;;10.50;7.82;;;;;;;29.36;34.49;101417.34;5039728;28;20091;-72
2021/07/24 09:48:51;;;;;;;12.95;8.32;;;;;;;29.64;33.81;101417.22;5038667;28;20482;-72
2021/07/24 09:51:32;;;;;;;14.73;8.43;;;;;;;29.77;34.38;101420.63;5040196;28;20052;-73
2021/07/24 09:53:58;;;;;;;20.35;8.85;;;;;;;29.96;33.16;101417.09;5029524;28;20226;-72
2021/07/24 09:56:39;;;;;;;13.05;8.73;;;;;;;30.16;32.96;101423.44;5038821;28;20033;-72
2021/07/24 09:59:18;;;;;;;12.63;7.78;;;;;;;30.30;32.26;101424.50;5021204;28;20036;-72
2021/07/24 10:01:52;;;;;;;11.90;8.10;;;;;;;30.35;34.07;101404.06;5020337;28;20382;-72
2021/07/24 10:04:33;;;;;;;10.48;8.57;;;;;;;30.40;31.81;101408.50;5037842;28;20022;-72
2021/07/24 10:07:01;;;;;;;14.27;8.00;;;;;;;30.47;32.32;101405.84;5036873;28;20527;-73
2021/07/24 10:09:30;;;;;;;12.30;8.00;;;;;;;30.52;31.34;101402.78;5023754;28;20044;-72
2021/07/24 10:11:57;;;;;;;11.25;7.65;;;;;;;30.46;32.20;101394.00;5032854;28;20108;-72
2021/07/24 10:14:23;;;;;;;16.45;8.70;;;;;;;30.40;31.23;101402.97;5036379;28;20017;-72
2021/07/24 10:16:50;;;;;;;13.73;9.15;;;;;;;30.42;31.44;101406.16;5037579;28;20032;-72
2021/07/24 10:19:21;;;;;;;39.10;10.05;;;;;;;30.58;31.68;101393.03;5030850;28;20033;-72
2021/07/24 10:21:47;;;;;;;9.35;7.88;;;;;;;30.56;31.51;101387.06;5034860;28;20333;-72
2021/07/24 10:24:13;;;;;;;13.93;8.98;;;;;;;30.66;32.59;101390.03;5034398;28;20075;-73
2021/07/24 10:26:48;;;;;;;13.43;8.82;;;;;;;30.80;30.59;101383.94;5037209;28;20497;-73
2021/07/24 10:29:17;;;;;;;11.95;8.60;;;;;;;30.64;31.07;101388.81;5035056;28;20056;-72
2021/07/24 10:32:02;;;;;;;13.23;8.57;;;;;;;30.36;31.46;101380.78;5037318;28;20499;-72
2021/07/24 10:34:31;;;;;;;13.57;9.50;;;;;;;29.97;32.22;101386.31;5029494;28;20596;-72
2021/07/24 10:36:56;;;;;;;11.75;8.65;;;;;;;30.14;31.94;101387.06;5034796;28;20083;-72
2021/07/24 10:39:23;;;;;;;12.88;8.20;;;;;;;30.33;31.82;101382.31;5033950;28;20195;-73
2021/07/24 10:41:49;;;;;;;15.60;8.95;;;;;;;30.18;32.63;101385.19;5033372;28;20466;-72
2021/07/24 10:44:38;;;;;;;9.07;7.75;;;;;;;30.32;32.45;101383.47;5032652;28;20056;-72
2021/07/24 10:47:03;;;;;;;16.30;8.85;;;;;;;30.85;31.66;101366.22;5018296;28;20540;-72
2021/07/24 10:49:35;;;;;;;9.90;8.00;;;;;;;31.17;31.08;101372.25;5035322;28;20029;-73
2021/07/24 10:52:03;;;;;;;13.07;9.38;;;;;;;31.07;30.76;101378.44;5036553;28;20094;-73
2021/07/24 10:54:29;;;;;;;11.98;8.75;;;;;;;30.64;31.21;101380.50;5017860;28;20029;-72
2021/07/24 10:56:55;;;;;;;14.45;9.00;;;;;;;30.95;32.25;101373.91;5034689;28;20037;-72
2021/07/24 10:59:24;;;;;;;16.02;8.63;;;;;;;31.38;32.25;101369.81;5038246;28;21682;-72
2021/07/24 11:01:54;;;;;;;13.23;8.48;;;;;;;31.14;30.92;101373.00;5031979;28;20024;-72
2021/07/24 11:04:42;;;;;;;12.60;9.07;;;;;;;30.65;30.20;101374.59;5015281;28;20033;-73
2021/07/24 11:07:23;;;;;;;11.15;8.73;;;;;;;30.79;31.54;101371.28;5035507;28;20021;-72
2021/07/24 11:09:52;;;;;;;13.02;8.70;;;;;;;31.21;30.37;101367.59;5032939;28;20024;-73
2021/07/24 11:12:18;;;;;;;14.13;8.68;;;;;;;31.46;30.34;101368.75;5034020;28;20040;-73
2021/07/24 11:14:48;;;;;;;11.77;8.63;;;;;;;31.72;29.47;101367.06;5035538;28;20112;-72
2021/07/24 11:17:14;;;;;;;10.45;8.15;;;;;;;31.39;30.00;101371.41;5017774;28;20432;-72
2021/07/24 11:19:49;;;;;;;10.15;8.40;;;;;;;31.52;30.17;101369.19;5022361;28;20086;-73